createdAt,value
2022-10-22T00:00:26.474Z,100080.36
2022-10-22T00:03:17.983Z,100083.11
2022-10-22T00:05:49.976Z,100085.38
2022-10-22T00:08:21.738Z,100081.14
2022-10-22T00:10:53.875Z,100086.45
2022-10-22T00:13:26.655Z,100084.65
2022-10-22T00:15:58.777Z,100082.42
2022-10-22T00:18:30.526Z,100085.31
2022-10-22T00:21:02.407Z,100079.45
2022-10-22T00:23:34.504Z,100076.05
2022-10-22T00:26:06.228Z,100072.00
2022-10-22T00:28:37.851Z,100064.42
2022-10-22T00:31:09.514Z,100060.99
2022-10-22T00:33:41.114Z,100059.17
2022-10-22T00:36:12.976Z,100058.23
2022-10-22T00:38:44.680Z,100050.64
2022-10-22T00:41:16.967Z,100046.83
2022-10-22T00:44:01.052Z,100053.33
2022-10-22T00:46:32.763Z,100058.95
2022-10-22T00:49:06.162Z,100053.73
2022-10-22T00:51:38.332Z,100052.95
2022-10-22T00:54:10.569Z,100056.30
2022-10-22T00:56:42.441Z,100056.11
2022-10-22T00:59:17.515Z,100048.67
2022-10-22T01:01:50.368Z,100051.18
2022-10-22T01:04:20.721Z,100046.54
2022-10-22T01:06:52.569Z,100043.08
2022-10-22T01:09:33.794Z,100040.98
2022-10-22T01:12:13.119Z,100032.40
2022-10-22T01:14:53.468Z,100030.06
2022-10-22T01:17:33.613Z,100020.73
2022-10-22T01:20:19.516Z,100012.30
2022-10-22T01:23:02.481Z,100012.52
2022-10-22T01:25:36.442Z,100017.42
2022-10-22T01:28:19.563Z,100023.00
2022-10-22T01:30:54.729Z,100022.05
2022-10-22T01:33:27.780Z,100023.30
2022-10-22T01:36:00.986Z,100023.39
2022-10-22T01:38:33.715Z,100030.69
2022-10-22T01:41:04.014Z,100020.55
2022-10-22T01:43:36.063Z,100018.77
2022-10-22T01:46:11.127Z,100022.88
2022-10-22T01:48:54.300Z,100018.36
2022-10-22T01:51:39.684Z,100013.88
2022-10-22T01:54:22.382Z,100019.16
2022-10-22T01:57:05.473Z,100020.59
2022-10-22T01:59:47.202Z,100019.16
2022-10-22T02:02:35.282Z,100025.89
2022-10-22T02:05:12.904Z,100034.70
2022-10-22T02:07:48.177Z,100043.64
2022-10-22T02:10:20.761Z,100044.11
2022-10-22T02:12:55.784Z,100048.20
2022-10-22T02:15:30.742Z,100046.00
2022-10-22T02:18:03.508Z,100042.33
2022-10-22T02:20:39.417Z,100022.08
2022-10-22T02:23:12.741Z,100017.79
2022-10-22T02:25:49.305Z,100014.16
2022-10-22T02:28:28.385Z,100014.91
2022-10-22T02:31:07.586Z,100019.10
2022-10-22T02:33:43.489Z,100016.08
2022-10-22T02:36:16.779Z,100010.36
2022-10-22T02:38:50.269Z,100012.29
2022-10-22T02:41:22.492Z,100018.20
2022-10-22T02:43:56.646Z,100023.30
2022-10-22T02:46:28.318Z,100030.28
2022-10-22T02:49:00.071Z,100039.63
2022-10-22T02:51:31.829Z,100049.84
2022-10-22T02:54:03.377Z,100051.52
2022-10-22T02:56:35.426Z,100049.64
2022-10-22T02:59:07.321Z,100049.13
2022-10-22T03:01:38.875Z,100051.08
2022-10-22T03:04:10.751Z,100050.84
2022-10-22T03:06:43.996Z,100044.17
2022-10-22T03:09:18.156Z,100040.51
2022-10-22T03:11:51.788Z,100031.98
2022-10-22T03:14:23.571Z,100033.00
2022-10-22T03:16:55.157Z,100025.29
2022-10-22T03:19:26.772Z,100022.52
2022-10-22T03:22:01.211Z,100030.94
2022-10-22T03:24:38.498Z,100032.20
2022-10-22T03:27:11.110Z,100028.36
2022-10-22T03:29:43.771Z,100031.20
2022-10-22T03:32:15.476Z,100039.39
2022-10-22T03:34:47.831Z,100038.98
2022-10-22T03:37:20.298Z,100038.16
2022-10-22T03:39:52.318Z,100038.00
2022-10-22T03:42:24.494Z,100045.58
2022-10-22T03:44:56.055Z,100048.40
2022-10-22T03:47:28.107Z,100050.96
2022-10-22T03:49:59.934Z,100048.93
2022-10-22T03:52:36.231Z,100048.15
2022-10-22T03:55:09.999Z,100046.71
2022-10-22T03:57:42.216Z,100046.66
2022-10-22T04:00:14.827Z,100044.59
2022-10-22T04:02:46.396Z,100045.60
2022-10-22T04:05:18.395Z,100048.67
2022-10-22T04:07:50.057Z,100049.09
2022-10-22T04:10:21.650Z,100052.02
2022-10-22T04:12:54.363Z,100050.98
2022-10-22T04:15:28.274Z,100045.11
2022-10-22T04:18:00.178Z,100042.48
2022-10-22T04:20:31.907Z,100048.48
2022-10-22T04:23:03.452Z,100045.27
2022-10-22T04:25:35.138Z,100038.91
2022-10-22T04:28:09.261Z,100042.62
2022-10-22T04:30:40.890Z,100045.33
2022-10-22T04:33:12.501Z,100043.31
2022-10-22T04:35:44.220Z,100042.48
2022-10-22T04:38:15.991Z,100032.52
2022-10-22T04:40:47.562Z,100034.09
2022-10-22T04:43:19.122Z,100037.98
2022-10-22T04:45:50.916Z,100039.02
2022-10-22T04:48:22.515Z,100046.13
2022-10-22T04:50:54.168Z,100053.51
2022-10-22T04:53:25.954Z,100061.52
2022-10-22T04:56:07.285Z,100067.77
2022-10-22T04:58:39.434Z,100063.73
2022-10-22T05:01:17.193Z,100057.38
2022-10-22T05:03:49.854Z,100056.31
2022-10-22T05:06:22.810Z,100063.20
2022-10-22T05:08:57.970Z,100064.94
2022-10-22T05:11:31.389Z,100057.79
2022-10-22T05:14:05.166Z,100052.45
2022-10-22T05:16:38.265Z,100058.77
2022-10-22T05:19:12.934Z,100061.56
2022-10-22T05:21:44.555Z,100059.20
2022-10-22T05:24:16.505Z,100060.88
2022-10-22T05:26:49.710Z,100056.05
2022-10-22T05:29:22.148Z,100048.84
2022-10-22T05:31:54.235Z,100057.34
2022-10-22T05:34:26.420Z,100068.13
2022-10-22T05:36:58.336Z,100075.27
2022-10-22T05:39:30.418Z,100086.60
2022-10-22T05:42:02.074Z,100084.66
2022-10-22T05:44:33.703Z,100091.46
2022-10-22T05:47:05.549Z,100088.23
2022-10-22T05:49:38.044Z,100086.35
2022-10-22T05:52:09.736Z,100090.12
2022-10-22T05:54:42.291Z,100093.73
2022-10-22T05:57:12.649Z,100092.11
2022-10-22T05:59:44.358Z,100092.48
2022-10-22T06:02:16.476Z,100087.36
2022-10-22T06:04:48.898Z,100086.65
2022-10-22T06:07:20.711Z,100088.55
2022-10-22T06:09:53.989Z,100089.75
2022-10-22T06:12:25.740Z,100091.42
2022-10-22T06:14:57.679Z,100092.45
2022-10-22T06:17:30.174Z,100093.48
2022-10-22T06:20:01.895Z,100101.20
2022-10-22T06:22:34.069Z,100101.10
2022-10-22T06:25:08.400Z,100104.10
2022-10-22T06:27:40.267Z,100108.69
2022-10-22T06:30:14.751Z,100114.27
2022-10-22T06:32:47.023Z,100117.89
2022-10-22T06:35:18.909Z,100118.14
2022-10-22T06:37:50.691Z,100122.83
2022-10-22T06:40:22.447Z,100119.51
2022-10-22T06:42:54.182Z,100121.41
2022-10-22T06:45:26.190Z,100120.27
2022-10-22T06:47:58.042Z,100125.27
2022-10-22T06:50:30.009Z,100125.30
2022-10-22T06:53:02.045Z,100122.02
2022-10-22T06:55:33.787Z,100116.52
2022-10-22T06:58:07.005Z,100116.13
2022-10-22T07:00:38.729Z,100114.16
2022-10-22T07:03:13.858Z,100114.73
2022-10-22T07:05:45.775Z,100125.27
2022-10-22T07:08:17.614Z,100137.86
2022-10-22T07:10:49.304Z,100150.25
2022-10-22T07:13:21.021Z,100144.00
2022-10-22T07:15:56.314Z,100150.15
2022-10-22T07:18:28.163Z,100153.89
2022-10-22T07:21:00.237Z,100147.76
2022-10-22T07:23:33.123Z,100151.58
2022-10-22T07:26:03.615Z,100155.39
2022-10-22T07:28:37.998Z,100157.68
2022-10-22T07:31:10.967Z,100159.71
2022-10-22T07:33:43.523Z,100163.70
2022-10-22T07:36:18.505Z,100170.61
2022-10-22T07:38:55.756Z,100172.73
2022-10-22T07:41:28.629Z,100169.30
2022-10-22T07:44:01.492Z,100169.81
2022-10-22T07:46:35.312Z,100168.31
2022-10-22T07:49:07.025Z,100164.22
2022-10-22T07:51:39.134Z,100168.90
2022-10-22T07:54:10.988Z,100166.70
2022-10-22T07:56:42.961Z,100167.80
2022-10-22T07:59:14.659Z,100170.70
2022-10-22T08:01:47.580Z,100166.65
2022-10-22T08:04:20.739Z,100163.67
2022-10-22T08:06:52.382Z,100168.62
2022-10-22T08:09:24.010Z,100174.84
2022-10-22T08:11:55.718Z,100174.00
2022-10-22T08:14:27.825Z,100178.07
2022-10-22T08:16:59.624Z,100176.84
2022-10-22T08:19:32.517Z,100178.20
2022-10-22T08:22:04.884Z,100166.42
2022-10-22T08:24:37.229Z,100175.42
2022-10-22T08:27:09.026Z,100178.34
2022-10-22T08:29:41.460Z,100183.81
2022-10-22T08:32:13.887Z,100177.73
2022-10-22T08:34:45.901Z,100183.11
2022-10-22T08:37:17.825Z,100187.38
2022-10-22T08:39:49.514Z,100187.45
2022-10-22T08:42:40.788Z,100188.77
2022-10-22T08:45:22.911Z,100188.73
2022-10-22T08:48:18.294Z,100185.93
2022-10-22T08:50:52.228Z,100185.89
2022-10-22T08:53:28.658Z,100187.30
2022-10-22T08:56:00.859Z,100184.65
2022-10-22T08:58:41.361Z,100181.98
2022-10-22T09:01:18.578Z,100189.60
2022-10-22T09:03:55.407Z,100186.27
2022-10-22T09:06:29.373Z,100187.89
2022-10-22T09:09:03.489Z,100191.73
2022-10-22T09:11:38.087Z,100190.09
2022-10-22T09:14:16.890Z,100188.11
2022-10-22T09:17:12.608Z,100192.95
2022-10-22T09:19:59.463Z,100192.60
2022-10-22T09:22:39.681Z,100187.00
2022-10-22T09:25:21.990Z,100195.89
2022-10-22T09:27:58.444Z,100197.34
2022-10-22T09:30:34.571Z,100197.04
2022-10-22T09:33:15.992Z,100193.85
2022-10-22T09:35:53.375Z,100189.02
2022-10-22T09:38:28.349Z,100186.84
2022-10-22T09:41:03.766Z,100185.22
2022-10-22T09:43:37.046Z,100193.09
2022-10-22T09:46:16.334Z,100193.55
2022-10-22T09:48:53.386Z,100197.91
2022-10-22T09:51:29.585Z,100203.93
2022-10-22T09:54:03.865Z,100207.51
2022-10-22T09:56:41.766Z,100213.40
2022-10-22T09:59:17.746Z,100222.09
2022-10-22T10:02:04.966Z,100226.09
2022-10-22T10:04:49.908Z,100227.09
2022-10-22T10:07:23.939Z,100234.96
2022-10-22T10:09:57.120Z,100236.04
2022-10-22T10:12:41.393Z,100240.58
2022-10-22T10:15:17.330Z,100244.89
2022-10-22T10:17:59.318Z,100246.89
2022-10-22T10:20:41.181Z,100245.19
2022-10-22T10:23:25.587Z,100242.76
2022-10-22T10:26:03.351Z,100244.98
2022-10-22T10:28:56.349Z,100246.58
2022-10-22T10:31:40.068Z,100248.80
2022-10-22T10:34:25.021Z,100249.08
2022-10-22T10:37:06.129Z,100251.64
2022-10-22T10:39:50.553Z,100250.75
2022-10-22T10:42:29.308Z,100248.58
2022-10-22T10:45:13.133Z,100245.45
2022-10-22T10:48:08.611Z,100241.17
2022-10-22T10:50:51.595Z,100240.09
2022-10-22T10:53:27.417Z,100237.21
2022-10-22T10:56:08.928Z,100235.33
2022-10-22T10:58:49.819Z,100233.19
2022-10-22T11:01:30.838Z,100236.97
2022-10-22T11:04:15.333Z,100230.73
2022-10-22T11:06:47.705Z,100229.45
2022-10-22T11:09:26.097Z,100229.30
2022-10-22T11:12:02.378Z,100224.96
2022-10-22T11:14:41.507Z,100221.77
2022-10-22T11:17:18.033Z,100215.58
2022-10-22T11:19:59.971Z,100210.45
2022-10-22T11:22:38.340Z,100209.11
2022-10-22T11:25:19.869Z,100215.03
2022-10-22T11:27:57.519Z,100211.56
2022-10-22T11:30:36.670Z,100214.27
2022-10-22T11:33:12.516Z,100211.88
2022-10-22T11:35:47.030Z,100214.98
2022-10-22T11:38:23.513Z,100205.70
2022-10-22T11:41:01.368Z,100208.61
2022-10-22T11:43:36.235Z,100209.92
2022-10-22T11:46:30.680Z,100206.57
2022-10-22T11:49:17.970Z,100206.34
2022-10-22T11:51:50.086Z,100210.26
2022-10-22T11:54:42.602Z,100211.13
2022-10-22T11:57:26.652Z,100215.27
2022-10-22T12:00:01.757Z,100211.92
2022-10-22T12:02:47.501Z,100212.46
2022-10-22T12:05:45.471Z,100209.70
2022-10-22T12:08:34.045Z,100211.83
2022-10-22T12:11:21.163Z,100209.54
2022-10-22T12:14:15.677Z,100209.04
2022-10-22T12:16:57.818Z,100210.42
2022-10-22T12:19:38.034Z,100208.06
2022-10-22T12:22:19.383Z,100206.65
2022-10-22T12:24:53.821Z,100206.52
2022-10-22T12:27:27.685Z,100205.80
2022-10-22T12:30:01.711Z,100205.40
2022-10-22T12:32:38.373Z,100205.40
2022-10-22T12:35:16.647Z,100202.17
2022-10-22T12:37:52.674Z,100201.52
2022-10-22T12:40:28.011Z,100200.70
2022-10-22T12:43:02.122Z,100202.95
2022-10-22T12:45:36.068Z,100201.62
2022-10-22T12:48:15.455Z,100202.10
2022-10-22T12:50:50.504Z,100202.68
2022-10-22T12:53:27.164Z,100201.09
2022-10-22T12:56:03.362Z,100200.85
2022-10-22T12:58:40.572Z,100199.65
2022-10-22T13:01:15.334Z,100201.70
2022-10-22T13:03:50.796Z,100200.60
2022-10-22T13:06:29.614Z,100207.70
2022-10-22T13:09:17.766Z,100206.55
2022-10-22T13:11:55.101Z,100211.82
2022-10-22T13:14:31.829Z,100208.86
2022-10-22T13:17:12.160Z,100212.89
2022-10-22T13:19:50.148Z,100210.63
2022-10-22T13:22:35.965Z,100211.73
2022-10-22T13:25:25.097Z,100213.98
2022-10-22T13:27:59.598Z,100213.49
2022-10-22T13:30:33.171Z,100212.71
2022-10-22T13:33:07.276Z,100213.36
2022-10-22T13:35:39.976Z,100222.89
2022-10-22T13:38:19.898Z,100223.40
2022-10-22T13:40:54.561Z,100222.19
2022-10-22T13:43:26.414Z,100223.86
2022-10-22T13:46:00.741Z,100227.34
2022-10-22T13:48:33.345Z,100231.41
2022-10-22T13:51:03.884Z,100227.88
2022-10-22T13:53:36.935Z,100229.80
2022-10-22T13:56:11.351Z,100228.15
2022-10-22T13:58:43.467Z,100231.63
2022-10-22T14:01:22.794Z,100230.81
2022-10-22T14:03:58.669Z,100236.44
2022-10-22T14:06:33.852Z,100240.56
2022-10-22T14:09:13.274Z,100234.33
2022-10-22T14:11:45.054Z,100236.06
2022-10-22T14:14:17.338Z,100234.29
2022-10-22T14:16:49.269Z,100239.72
2022-10-22T14:19:21.074Z,100238.46
2022-10-22T14:21:52.867Z,100243.51
2022-10-22T14:24:24.567Z,100247.11
2022-10-22T14:26:56.329Z,100245.02
2022-10-22T14:29:28.120Z,100247.88
2022-10-22T14:32:00.004Z,100242.53
2022-10-22T14:34:31.595Z,100253.38
2022-10-22T14:37:03.450Z,100251.24
2022-10-22T14:39:35.104Z,100249.05
2022-10-22T14:42:06.888Z,100247.98
2022-10-22T14:44:38.513Z,100252.11
2022-10-22T14:47:10.254Z,100249.87
2022-10-22T14:49:42.135Z,100255.22
2022-10-22T14:52:14.935Z,100259.30
2022-10-22T14:54:48.628Z,100257.55
2022-10-22T14:57:20.318Z,100260.64
2022-10-22T14:59:54.859Z,100258.70
2022-10-22T15:02:27.237Z,100255.63
2022-10-22T15:04:59.017Z,100259.09
2022-10-22T15:07:31.850Z,100261.66
2022-10-22T15:10:03.754Z,100267.20
2022-10-22T15:12:35.824Z,100265.89
2022-10-22T15:15:09.266Z,100267.64
2022-10-22T15:17:41.292Z,100268.38
2022-10-22T15:20:13.441Z,100274.71
2022-10-22T15:22:45.579Z,100275.52
2022-10-22T15:25:17.253Z,100277.80
2022-10-22T15:27:51.294Z,100281.54
2022-10-22T15:30:24.315Z,100279.25
2022-10-22T15:32:56.097Z,100280.29
2022-10-22T15:35:29.883Z,100278.71
2022-10-22T15:38:01.698Z,100284.17
2022-10-22T15:40:33.419Z,100285.77
2022-10-22T15:43:05.078Z,100287.70
2022-10-22T15:45:36.962Z,100286.58
2022-10-22T15:48:11.357Z,100292.13
2022-10-22T15:50:45.241Z,100295.19
2022-10-22T15:53:17.085Z,100298.09
2022-10-22T15:55:52.500Z,100297.85
2022-10-22T15:58:24.328Z,100301.30
2022-10-22T16:00:56.674Z,100299.61
2022-10-22T16:03:28.346Z,100304.22
2022-10-22T16:06:00.215Z,100309.45
2022-10-22T16:08:32.210Z,100311.69
2022-10-22T16:11:05.213Z,100315.84
2022-10-22T16:13:37.129Z,100318.65
2022-10-22T16:16:11.519Z,100323.76
2022-10-22T16:18:43.588Z,100325.52
2022-10-22T16:21:17.008Z,100325.92
2022-10-22T16:23:49.285Z,100330.98
2022-10-22T16:26:23.721Z,100335.70
2022-10-22T16:28:55.787Z,100333.90
2022-10-22T16:31:27.502Z,100328.19
2022-10-22T16:33:59.941Z,100333.23
2022-10-22T16:36:31.785Z,100337.60
2022-10-22T16:39:04.871Z,100336.73
2022-10-22T16:41:37.248Z,100341.71
2022-10-22T16:44:12.513Z,100344.06
2022-10-22T16:46:44.827Z,100345.11
2022-10-22T16:49:17.037Z,100346.39
2022-10-22T16:51:48.978Z,100351.20
2022-10-22T16:54:21.934Z,100352.35
2022-10-22T16:56:54.782Z,100358.78
2022-10-22T16:59:26.689Z,100361.59
2022-10-22T17:01:58.756Z,100368.81
2022-10-22T17:04:30.643Z,100367.73
2022-10-22T17:07:02.596Z,100366.33
2022-10-22T17:09:34.317Z,100369.02
2022-10-22T17:12:06.640Z,100370.75
2022-10-22T17:14:38.673Z,100374.82
2022-10-22T17:17:10.405Z,100376.52
2022-10-22T17:19:42.808Z,100374.99
2022-10-22T17:22:16.241Z,100376.12
2022-10-22T17:25:05.225Z,100375.64
2022-10-22T17:27:37.040Z,100378.91
2022-10-22T17:30:13.290Z,100384.23
2022-10-22T17:32:45.617Z,100387.17
2022-10-22T17:35:18.084Z,100387.63
2022-10-22T17:37:49.851Z,100390.30
2022-10-22T17:40:21.887Z,100394.85
2022-10-22T17:42:53.668Z,100396.17
2022-10-22T17:45:25.346Z,100399.69
2022-10-22T17:47:57.275Z,100402.23
2022-10-22T17:50:28.938Z,100408.91
2022-10-22T17:53:00.995Z,100406.24
2022-10-22T17:55:34.656Z,100407.51
2022-10-22T17:58:06.293Z,100408.98
2022-10-22T18:00:39.449Z,100413.65
2022-10-22T18:03:12.055Z,100412.91
2022-10-22T18:05:43.671Z,100412.61
2022-10-22T18:08:15.371Z,100415.27
2022-10-22T18:10:47.237Z,100414.70
2022-10-22T18:13:22.075Z,100414.91
2022-10-22T18:15:57.829Z,100418.81
2022-10-22T18:18:29.861Z,100420.92
2022-10-22T18:21:01.611Z,100427.72
2022-10-22T18:23:33.370Z,100429.27
2022-10-22T18:26:06.894Z,100431.41
2022-10-22T18:28:38.645Z,100436.58
2022-10-22T18:31:13.460Z,100437.06
2022-10-22T18:33:45.543Z,100442.77
2022-10-22T18:36:20.518Z,100437.88
2022-10-22T18:38:54.046Z,100438.63
2022-10-22T18:41:26.678Z,100437.10
2022-10-22T18:43:58.813Z,100437.31
2022-10-22T18:46:38.507Z,100438.08
2022-10-22T18:49:14.870Z,100446.23
2022-10-22T18:51:48.772Z,100443.21
2022-10-22T18:54:23.693Z,100449.30
2022-10-22T18:57:00.479Z,100453.41
2022-10-22T18:59:34.458Z,100458.23
2022-10-22T19:02:06.498Z,100456.02
2022-10-22T19:04:38.083Z,100457.20
2022-10-22T19:09:46.531Z,100461.14
2022-10-22T19:12:21.518Z,100463.83
2022-10-22T19:14:53.583Z,100470.21
2022-10-22T19:17:25.759Z,100469.59
2022-10-22T19:19:57.518Z,100468.34
2022-10-22T19:22:29.910Z,100464.86
2022-10-22T19:25:01.539Z,100475.20
2022-10-22T19:27:33.595Z,100481.53
2022-10-22T19:30:06.458Z,100482.73
2022-10-22T19:32:36.590Z,100484.05
2022-10-22T19:35:10.257Z,100488.66
2022-10-22T19:37:46.189Z,100488.02
2022-10-22T19:40:20.218Z,100490.62
2022-10-22T19:42:52.209Z,100486.35
2022-10-22T19:45:23.832Z,100494.21
2022-10-22T19:47:55.641Z,100498.93
2022-10-22T19:50:27.582Z,100506.29
2022-10-22T19:52:59.697Z,100512.23
2022-10-22T19:55:31.658Z,100513.52
2022-10-22T19:58:03.766Z,100517.31
2022-10-22T20:00:36.319Z,100519.68
2022-10-22T20:03:08.544Z,100519.52
2022-10-22T20:05:42.945Z,100522.48
2022-10-22T20:08:15.239Z,100522.61
2022-10-22T20:10:50.718Z,100531.08
2022-10-22T20:13:22.622Z,100527.48
2022-10-22T20:15:54.307Z,100528.41
2022-10-22T20:18:25.995Z,100533.58
2022-10-22T20:20:57.622Z,100534.69
2022-10-22T20:23:29.297Z,100537.20
2022-10-22T20:26:01.427Z,100538.58
2022-10-22T20:28:33.481Z,100536.31
2022-10-22T20:31:11.721Z,100544.55
2022-10-22T20:33:43.747Z,100542.02
2022-10-22T20:36:19.504Z,100542.35
2022-10-22T20:38:52.513Z,100538.98
2022-10-22T20:41:25.234Z,100537.33
2022-10-22T20:43:57.114Z,100540.09
2022-10-22T20:46:31.300Z,100536.95
2022-10-22T20:49:05.438Z,100536.80
2022-10-22T20:51:38.056Z,100537.45
2022-10-22T20:54:09.044Z,100544.93
2022-10-22T20:56:42.494Z,100543.27
2022-10-22T20:59:14.351Z,100546.46
2022-10-22T21:01:48.860Z,100544.05
2022-10-22T21:04:22.127Z,100546.10
2022-10-22T21:06:54.153Z,100548.30
2022-10-22T21:09:26.785Z,100553.37
2022-10-22T21:12:03.410Z,100552.34
2022-10-22T21:14:35.525Z,100557.80
2022-10-22T21:17:08.199Z,100557.64
2022-10-22T21:19:40.196Z,100551.48
2022-10-22T21:22:11.898Z,100555.02
2022-10-22T21:24:43.533Z,100558.05
2022-10-22T21:27:15.175Z,100557.71
2022-10-22T21:29:46.860Z,100554.50
2022-10-22T21:32:18.425Z,100565.13
2022-10-22T21:34:49.977Z,100564.98
2022-10-22T21:37:22.816Z,100561.71
2022-10-22T21:39:54.506Z,100564.83
2022-10-22T21:42:26.127Z,100568.40
2022-10-22T21:44:57.801Z,100564.82
2022-10-22T21:47:29.496Z,100558.10
2022-10-22T21:50:01.940Z,100559.70
2022-10-22T21:52:33.634Z,100560.84
2022-10-22T21:55:05.632Z,100565.69
2022-10-22T21:57:37.241Z,100567.88
2022-10-22T22:00:12.230Z,100566.88
2022-10-22T22:02:50.434Z,100570.18
2022-10-22T22:05:22.608Z,100564.73
2022-10-22T22:07:54.618Z,100570.33
2022-10-22T22:10:27.280Z,100569.05
2022-10-22T22:12:58.850Z,100576.42
2022-10-22T22:15:31.674Z,100576.17
2022-10-22T22:18:03.348Z,100577.07
2022-10-22T22:20:35.089Z,100584.41
2022-10-22T22:23:06.681Z,100585.73
2022-10-22T22:25:38.507Z,100588.70
2022-10-22T22:28:10.125Z,100592.39
2022-10-22T22:30:41.734Z,100594.58
2022-10-22T22:33:13.611Z,100594.66
2022-10-22T22:35:45.315Z,100594.09
2022-10-22T22:38:17.702Z,100599.00
2022-10-22T22:40:49.317Z,100595.59
2022-10-22T22:43:20.920Z,100599.80
2022-10-22T22:46:01.553Z,100603.89
2022-10-22T22:48:33.822Z,100603.02
2022-10-22T22:51:06.404Z,100599.13
2022-10-22T22:53:36.960Z,100599.55
2022-10-22T22:56:11.206Z,100590.56
2022-10-22T22:58:43.857Z,100596.66
2022-10-22T23:01:15.489Z,100594.80
2022-10-22T23:03:48.940Z,100600.59
2022-10-22T23:06:20.864Z,100601.73
2022-10-22T23:08:54.090Z,100603.39
2022-10-22T23:11:27.694Z,100603.38
2022-10-22T23:14:01.356Z,100602.44
2022-10-22T23:16:36.726Z,100595.38
2022-10-22T23:19:08.501Z,100598.64
2022-10-22T23:21:42.724Z,100599.89
2022-10-22T23:24:17.790Z,100599.91
2022-10-22T23:26:51.371Z,100601.43
2022-10-22T23:29:26.259Z,100604.09
2022-10-22T23:32:00.151Z,100606.55
2022-10-22T23:34:33.030Z,100608.33
2022-10-22T23:37:04.734Z,100604.41
2022-10-22T23:39:36.380Z,100606.60
2022-10-22T23:42:08.169Z,100606.54
2022-10-22T23:44:39.953Z,100605.17
2022-10-22T23:47:11.597Z,100602.10
2022-10-22T23:49:43.448Z,100599.88
2022-10-22T23:52:15.391Z,100598.50
2022-10-22T23:54:47.387Z,100597.55
2022-10-22T23:57:19.054Z,100601.98
2022-10-22T23:59:50.634Z,100601.22
